Time;durP1;ratioP1;P1;durP2;ratioP2;P2;SDS_P1;SDS_P2;PMS_P1;PMS_P2;Temp;Humidity;BMP_temperature;BMP_pressure;BME280_temperature;BME280_humidity;BME280_pressure;Samples;Min_cycle;Max_cycle;Signal;HPM_P1;HPM_P2
2023/07/03 08:27:55;;;;;;;6.50;1.73;;;22.50;61.10;;;;;;5010976;28;1264546;-63
2023/07/03 08:30:22;;;;;;;8.02;1.60;;;22.50;61.10;;;;;;5025118;28;20062;-61
2023/07/03 08:32:48;;;;;;;7.18;1.50;;;22.50;61.60;;;;;;5288329;22;20053;-59
2023/07/03 08:35:13;;;;;;;5.05;1.70;;;22.50;61.00;;;;;;5050895;28;20056;-59
2023/07/03 08:37:39;;;;;;;11.43;1.92;;;22.60;61.00;;;;;;5054405;28;20041;-59
2023/07/03 08:40:06;;;;;;;9.65;1.73;;;22.60;60.80;;;;;;5053363;28;20475;-59
2023/07/03 08:42:34;;;;;;;6.43;1.70;;;22.60;60.50;;;;;;5033813;28;20041;-59
2023/07/03 08:45:00;;;;;;;6.97;1.75;;;22.60;60.30;;;;;;5048639;28;20135;-60
2023/07/03 08:47:28;;;;;;;7.28;1.38;;;22.60;60.20;;;;;;5032735;28;20071;-60
2023/07/03 08:49:53;;;;;;;5.07;1.50;;;22.60;60.10;;;;;;5028172;28;20052;-61
2023/07/03 08:52:41;;;;;;;5.88;1.40;;;22.70;60.20;;;;;;5052342;28;20037;-60
2023/07/03 08:55:07;;;;;;;6.88;1.55;;;22.70;60.20;;;;;;5035542;28;20479;-60
2023/07/03 08:57:33;;;;;;;7.65;2.08;;;22.60;60.10;;;;;;5051004;28;20041;-60
2023/07/03 08:59:58;;;;;;;6.32;1.60;;;22.70;60.10;;;;;;5034975;28;20045;-59
2023/07/03 09:02:35;;;;;;;5.60;1.50;;;22.70;60.10;;;;;;5049810;28;20034;-60
2023/07/03 09:05:06;;;;;;;6.18;1.88;;;22.80;60.10;;;;;;5029882;28;20159;-61
2023/07/03 09:07:41;;;;;;;6.20;1.90;;;22.80;60.10;;;;;;5046916;28;20033;-60
2023/07/03 09:10:13;;;;;;;6.70;1.42;;;22.70;60.00;;;;;;5036135;28;20886;-60
2023/07/03 09:12:53;;;;;;;5.63;1.15;;;22.80;60.60;;;;;;5053113;28;20041;-59
2023/07/03 09:15:39;;;;;;;4.13;1.20;;;22.80;60.60;;;;;;5050241;28;20395;-60
2023/07/03 09:18:10;;;;;;;7.35;1.63;;;22.80;60.10;;;;;;5054807;28;20055;-59
2023/07/03 09:20:36;;;;;;;4.15;1.27;;;22.80;59.70;;;;;;5054131;28;20064;-59
2023/07/03 09:23:08;;;;;;;5.07;1.30;;;22.80;59.70;;;;;;5053696;28;20411;-59
2023/07/03 09:25:52;;;;;;;7.40;1.45;;;22.80;59.60;;;;;;5054553;28;20453;-59
2023/07/03 09:28:17;;;;;;;8.05;1.48;;;22.80;59.60;;;;;;5052737;28;20049;-58
2023/07/03 09:30:43;;;;;;;6.50;1.65;;;22.80;59.60;;;;;;5053446;28;20049;-59
2023/07/03 09:33:09;;;;;;;7.97;1.48;;;22.80;59.50;;;;;;5053638;28;20508;-58
2023/07/03 09:35:36;;;;;;;5.88;1.30;;;22.80;59.60;;;;;;5043922;28;20045;-59
2023/07/03 09:38:02;;;;;;;6.05;1.50;;;22.70;59.30;;;;;;5053529;28;20048;-58
2023/07/03 09:40:38;;;;;;;5.05;1.30;;;22.70;59.30;;;;;;5052563;28;20041;-58
2023/07/03 09:43:10;;;;;;;7.57;1.40;;;22.70;59.30;;;;;;5051337;28;20056;-59
2023/07/03 09:45:36;;;;;;;8.20;1.55;;;22.70;59.20;;;;;;5028902;28;20056;-59
2023/07/03 09:48:03;;;;;;;6.65;2.08;;;22.80;59.30;;;;;;5035137;28;20399;-57
2023/07/03 09:50:34;;;;;;;11.88;1.75;;;22.70;59.20;;;;;;5040179;28;20496;-60
2023/07/03 09:53:01;;;;;;;3.75;1.17;;;22.80;58.90;;;;;;5043933;28;20037;-59
2023/07/03 09:55:27;;;;;;;4.90;1.40;;;22.70;58.70;;;;;;5052600;28;20167;-60
2023/07/03 09:57:53;;;;;;;8.57;1.63;;;22.80;58.60;;;;;;5052548;28;20407;-59
2023/07/03 10:00:23;;;;;;;5.85;1.48;;;22.80;58.40;;;;;;5053035;28;20033;-62
2023/07/03 10:02:56;;;;;;;7.78;1.58;;;22.70;58.10;;;;;;5052369;28;20048;-60
2023/07/03 10:05:29;;;;;;;6.05;1.40;;;22.80;58.10;;;;;;5049892;28;20112;-58
2023/07/03 10:07:55;;;;;;;7.78;1.50;;;22.80;57.90;;;;;;5052759;28;20057;-57
2023/07/03 10:10:22;;;;;;;6.63;1.65;;;22.80;58.50;;;;;;5049116;28;20077;-62
2023/07/03 10:13:08;;;;;;;7.97;1.83;;;22.80;58.00;;;;;;5043133;28;20041;-64
2023/07/03 10:15:36;;;;;;;14.10;2.55;;;22.80;58.10;;;;;;5042532;28;20120;-64
2023/07/03 10:18:27;;;;;;;8.93;1.85;;;22.70;58.30;;;;;;5026164;28;20118;-66
2023/07/03 10:20:52;;;;;;;9.82;1.50;;;22.70;58.60;;;;;;5038627;28;20516;-64
2023/07/03 10:23:24;;;;;;;9.75;2.17;;;22.70;58.70;;;;;;5052029;28;20033;-64
2023/07/03 10:26:04;;;;;;;11.32;1.98;;;22.80;58.90;;;;;;5033747;28;20049;-64
2023/07/03 10:28:36;;;;;;;7.25;1.85;;;22.80;58.80;;;;;;5052561;28;20045;-64
2023/07/03 10:31:05;;;;;;;6.22;1.55;;;22.80;58.80;;;;;;5035156;28;20041;-63
2023/07/03 10:33:33;;;;;;;8.70;1.60;;;22.80;58.80;;;;;;5018928;28;20068;-65
2023/07/03 10:35:59;;;;;;;;;;;22.80;58.80;;;;;;5035819;28;20116;-64
2023/07/03 10:38:27;;;;;;;9.65;1.50;;;22.80;58.90;;;;;;5052823;28;19929;-64
2023/07/03 10:40:57;;;;;;;6.80;1.50;;;22.80;58.90;;;;;;5051765;28;20080;-65
2023/07/03 10:43:24;;;;;;;8.85;1.83;;;22.80;58.90;;;;;;5051986;28;20049;-64
2023/07/03 10:45:50;;;;;;;7.20;1.63;;;22.80;58.90;;;;;;5034684;28;20056;-64
2023/07/03 10:48:17;;;;;;;5.25;1.63;;;22.80;59.00;;;;;;5016667;28;20041;-65
2023/07/03 10:50:48;;;;;;;5.90;1.20;;;22.80;59.10;;;;;;5051639;28;20041;-64
2023/07/03 10:53:34;;;;;;;7.50;1.58;;;22.80;59.10;;;;;;5031177;28;20123;-63
2023/07/03 10:56:29;;;;;;;7.25;1.60;;;22.80;59.10;;;;;;5035917;28;20044;-63
2023/07/03 10:59:20;;;;;;;6.10;1.45;;;22.80;59.20;;;;;;5033865;28;20485;-63
2023/07/03 11:01:51;;;;;;;8.55;1.75;;;22.80;59.30;;;;;;5049312;28;20045;-66
2023/07/03 11:04:23;;;;;;;8.18;1.73;;;22.80;59.30;;;;;;5050060;28;20076;-65
2023/07/03 11:07:37;;;;;;;7.65;1.40;;;22.80;59.30;;;;;;5050442;28;20060;-66
2023/07/03 11:10:20;;;;;;;6.93;1.63;;;22.80;59.30;;;;;;4971453;28;20046;-66
2023/07/03 11:12:53;;;;;;;5.22;1.45;;;22.80;59.30;;;;;;5044912;28;20057;-65
2023/07/03 11:15:19;;;;;;;8.60;1.60;;;22.80;59.20;;;;;;5050984;28;20052;-66
2023/07/03 11:18:00;;;;;;;6.18;1.52;;;22.80;59.20;;;;;;5052595;28;20442;-68
2023/07/03 11:20:35;;;;;;;5.13;1.33;;;22.80;59.10;;;;;;5052359;28;20052;-68
2023/07/03 11:23:35;;;;;;;5.78;1.45;;;22.80;59.10;;;;;;5051198;28;20040;-67
2023/07/03 11:26:11;;;;;;;5.55;1.50;;;22.80;58.90;;;;;;5051958;28;20083;-67
2023/07/03 11:28:43;;;;;;;5.90;1.63;;;22.80;58.80;;;;;;5050235;28;20106;-67
2023/07/03 11:31:09;;;;;;;8.52;2.65;;;22.90;58.80;;;;;;5050727;28;20079;-67
2023/07/03 11:33:35;;;;;;;10.55;2.30;;;22.90;59.60;;;;;;5051741;28;20049;-66
2023/07/03 11:36:00;;;;;;;7.15;2.33;;;22.80;58.80;;;;;;5051106;28;20055;-66
2023/07/03 11:38:26;;;;;;;10.52;1.83;;;22.80;58.90;;;;;;5051700;28;20403;-67
2023/07/03 11:40:55;;;;;;;7.60;1.80;;;22.90;58.90;;;;;;5051553;28;20041;-64
2023/07/03 11:43:31;;;;;;;7.85;2.10;;;22.80;58.90;;;;;;5051649;28;20037;-66
2023/07/03 11:45:57;;;;;;;6.78;1.98;;;22.90;59.00;;;;;;5052030;28;20124;-66
2023/07/03 11:48:33;;;;;;;10.50;2.78;;;22.90;58.90;;;;;;5050516;28;20500;-67
2023/07/03 11:51:08;;;;;;;9.45;1.90;;;22.90;58.90;;;;;;5050421;28;20084;-67
2023/07/03 11:53:38;;;;;;;7.38;2.10;;;22.90;58.80;;;;;;5051449;28;20045;-66
2023/07/03 11:56:05;;;;;;;7.65;1.70;;;23.00;58.90;;;;;;5046824;28;20052;-66
2023/07/03 11:58:33;;;;;;;6.72;1.73;;;23.00;59.00;;;;;;5030874;28;20049;-67
2023/07/03 12:01:20;;;;;;;6.10;2.30;;;22.90;59.10;;;;;;5030948;28;20119;-65
2023/07/03 12:04:06;;;;;;;14.43;2.10;;;23.00;59.40;;;;;;5030264;28;20115;-65
2023/07/03 12:06:40;;;;;;;8.70;2.05;;;22.90;59.30;;;;;;5032629;28;20494;-65
2023/07/03 12:09:22;;;;;;;9.18;1.75;;;22.90;59.30;;;;;;5030937;28;20503;-65
2023/07/03 12:11:59;;;;;;;9.63;1.60;;;22.90;59.30;;;;;;5031274;28;20068;-64
2023/07/03 12:14:40;;;;;;;7.18;1.75;;;22.90;59.30;;;;;;5032378;28;20099;-65
2023/07/03 12:17:22;;;;;;;8.45;1.88;;;22.90;59.30;;;;;;5031078;28;20076;-65
2023/07/03 12:19:48;;;;;;;6.35;1.73;;;22.80;59.30;;;;;;5031706;28;20511;-66
2023/07/03 12:22:15;;;;;;;8.30;1.63;;;22.90;59.30;;;;;;5032029;28;20133;-66
2023/07/03 12:24:41;;;;;;;7.27;1.70;;;22.90;59.30;;;;;;5030161;28;20060;-65
2023/07/03 12:27:07;;;;;;;8.82;2.00;;;22.90;59.30;;;;;;5031931;28;20300;-66
2023/07/03 12:29:34;;;;;;;6.95;1.80;;;22.90;59.30;;;;;;5030589;28;20048;-66
2023/07/03 12:32:08;;;;;;;6.07;1.27;;;22.90;59.20;;;;;;5031047;28;20088;-65
2023/07/03 12:34:38;;;;;;;8.43;1.70;;;22.90;59.20;;;;;;5031947;28;20048;-65
2023/07/03 12:37:07;;;;;;;5.85;1.58;;;22.90;59.30;;;;;;5030025;28;20096;-65
2023/07/03 12:39:33;;;;;;;5.93;1.35;;;22.90;59.20;;;;;;5014021;28;20436;-65
2023/07/03 12:42:13;;;;;;;7.53;1.38;;;22.90;59.20;;;;;;5030534;28;20039;-65
2023/07/03 12:44:39;;;;;;;5.00;1.45;;;22.90;59.10;;;;;;4997435;28;20038;-65
2023/07/03 12:47:16;;;;;;;4.53;1.30;;;22.80;59.10;;;;;;5030328;28;20045;-65
2023/07/03 12:50:00;;;;;;;4.28;1.33;;;22.90;59.10;;;;;;5032512;28;20080;-65
2023/07/03 12:52:28;;;;;;;5.03;1.50;;;22.80;59.10;;;;;;5034974;28;20049;-65
2023/07/03 12:54:54;;;;;;;3.63;1.40;;;22.80;59.10;;;;;;5037057;28;20036;-65
2023/07/03 12:57:20;;;;;;;5.80;1.40;;;22.80;59.10;;;;;;5054196;28;20059;-65
2023/07/03 12:59:48;;;;;;;4.57;1.20;;;22.80;59.20;;;;;;5036565;28;20391;-64
2023/07/03 13:02:24;;;;;;;4.95;1.80;;;22.80;59.20;;;;;;5037438;28;20037;-65
2023/07/03 13:04:57;;;;;;;6.00;1.85;;;22.70;59.20;;;;;;5053737;28;20048;-64
2023/07/03 13:07:24;;;;;;;4.65;1.30;;;22.70;59.20;;;;;;5037038;28;20053;-64
2023/07/03 13:09:54;;;;;;;5.88;1.33;;;22.70;59.30;;;;;;5053764;28;20183;-64
2023/07/03 13:12:22;;;;;;;7.18;1.85;;;22.70;59.40;;;;;;5054488;28;20040;-64
2023/07/03 13:15:10;;;;;;;6.07;1.40;;;22.60;59.20;;;;;;5054298;28;20075;-64
2023/07/03 13:17:41;;;;;;;5.75;1.20;;;22.60;59.20;;;;;;5055041;28;20080;-64
2023/07/03 13:20:26;;;;;;;5.65;1.35;;;22.60;59.20;;;;;;5052457;28;20186;-64
2023/07/03 13:23:00;;;;;;;5.18;1.30;;;22.60;59.20;;;;;;5052994;28;20051;-65
2023/07/03 13:25:30;;;;;;;4.78;1.20;;;22.60;59.30;;;;;;5052986;28;20115;-74
2023/07/03 13:27:56;;;;;;;5.88;1.30;;;22.50;59.20;;;;;;5053482;28;20049;-64
2023/07/03 13:30:24;;;;;;;6.35;1.27;;;22.60;59.30;;;;;;5051016;28;20040;-63
2023/07/03 13:33:13;;;;;;;5.35;1.50;;;22.60;59.30;;;;;;5032336;28;20061;-62
2023/07/03 13:35:44;;;;;;;5.95;1.23;;;22.50;59.50;;;;;;5035961;28;20049;-63
2023/07/03 13:38:23;;;;;;;7.10;1.50;;;22.50;59.60;;;;;;5036229;28;20049;-62
2023/07/03 13:40:49;;;;;;;4.75;1.33;;;22.50;59.80;;;;;;5053603;28;20037;-62
2023/07/03 13:43:22;;;;;;;5.22;1.10;;;22.50;59.80;;;;;;5054277;28;20352;-62
2023/07/03 13:45:49;;;;;;;5.80;1.05;;;22.50;59.90;;;;;;5053341;28;20037;-62
2023/07/03 13:48:15;;;;;;;5.80;1.50;;;22.50;59.90;;;;;;5053141;28;20045;-62
2023/07/03 13:50:41;;;;;;;4.80;1.25;;;22.50;60.00;;;;;;5051628;28;20043;-63
2023/07/03 13:53:06;;;;;;;3.97;1.40;;;22.50;60.00;;;;;;5033621;28;20041;-63
2023/07/03 13:55:32;;;;;;;5.63;1.10;;;22.40;60.00;;;;;;5033135;28;20068;-63
2023/07/03 13:57:57;;;;;;;5.43;1.40;;;22.50;60.00;;;;;;5033463;28;20041;-62
2023/07/03 14:00:23;;;;;;;4.32;1.42;;;22.40;60.00;;;;;;5033539;28;20045;-62
2023/07/03 14:02:49;;;;;;;3.67;1.40;;;22.40;60.00;;;;;;5032855;28;20042;-62
2023/07/03 14:05:15;;;;;;;4.88;1.10;;;22.40;60.00;;;;;;5044269;28;20060;-62
2023/07/03 14:07:41;;;;;;;6.72;1.15;;;22.40;60.10;;;;;;5034937;28;20038;-62
2023/07/03 14:10:07;;;;;;;5.07;1.40;;;22.40;60.10;;;;;;5031191;28;20153;-62
2023/07/03 14:12:33;;;;;;;2.63;0.90;;;22.50;60.30;;;;;;5033892;28;20037;-61
2023/07/03 14:14:59;;;;;;;3.75;1.10;;;22.40;60.20;;;;;;5033070;28;20558;-62
2023/07/03 14:17:24;;;;;;;4.65;1.48;;;22.40;60.30;;;;;;5032861;28;20044;-62
2023/07/03 14:19:50;;;;;;;5.65;1.17;;;22.40;60.30;;;;;;5032783;28;20053;-62
2023/07/03 14:22:16;;;;;;;4.28;1.00;;;22.40;60.30;;;;;;5032173;28;20484;-62
2023/07/03 14:24:42;;;;;;;7.53;1.45;;;22.40;60.30;;;;;;5031458;28;20041;-63
2023/07/03 14:27:07;;;;;;;3.78;1.30;;;22.40;60.40;;;;;;5046173;28;20041;-63
2023/07/03 14:29:33;;;;;;;4.43;1.20;;;22.40;60.30;;;;;;5051736;28;20037;-64
2023/07/03 14:31:59;;;;;;;4.63;1.20;;;22.40;60.30;;;;;;5050503;28;20056;-63
2023/07/03 14:34:25;;;;;;;4.82;1.05;;;22.40;60.30;;;;;;5051418;28;20045;-63
2023/07/03 14:36:51;;;;;;;3.67;0.93;;;22.40;60.20;;;;;;5052422;28;20048;-63
2023/07/03 14:39:16;;;;;;;5.90;1.50;;;22.30;60.20;;;;;;5052608;28;20033;-63
2023/07/03 14:41:42;;;;;;;3.22;0.93;;;22.30;60.10;;;;;;5052864;28;20403;-62
2023/07/03 14:44:09;;;;;;;4.63;0.90;;;22.40;60.30;;;;;;5044921;28;20050;-61
2023/07/03 14:46:34;;;;;;;4.70;0.90;;;22.30;60.20;;;;;;5046905;28;20045;-62
2023/07/03 14:49:00;;;;;;;5.57;1.35;;;22.30;60.40;;;;;;5039199;28;20499;-61
2023/07/03 14:51:25;;;;;;;2.88;1.20;;;22.30;60.50;;;;;;5042063;28;20053;-61
2023/07/03 14:53:51;;;;;;;7.45;1.63;;;22.30;60.50;;;;;;5043135;28;20118;-61
2023/07/03 14:56:16;;;;;;;4.28;1.15;;;22.30;60.60;;;;;;5041564;28;20040;-61
2023/07/03 14:58:42;;;;;;;4.60;1.05;;;22.30;60.60;;;;;;5040696;28;20048;-61
2023/07/03 15:01:08;;;;;;;5.10;1.35;;;22.30;60.70;;;;;;5042603;28;20045;-61
2023/07/03 15:03:33;;;;;;;6.13;1.30;;;22.30;60.70;;;;;;5038491;28;20440;-60
2023/07/03 15:06:00;;;;;;;6.10;1.48;;;22.30;60.70;;;;;;5040599;28;20060;-60
2023/07/03 15:08:26;;;;;;;2.95;1.00;;;22.40;60.80;;;;;;5022779;28;20104;-63
2023/07/03 15:10:52;;;;;;;4.80;1.20;;;22.30;60.80;;;;;;5043362;28;20065;-60
2023/07/03 15:13:17;;;;;;;6.32;1.27;;;22.30;60.80;;;;;;5036244;28;20480;-60
2023/07/03 15:15:47;;;;;;;5.93;1.40;;;22.30;60.80;;;;;;5040080;28;20053;-60
2023/07/03 15:18:12;;;;;;;7.65;1.88;;;22.40;60.60;;;;;;5039545;28;20045;-60
2023/07/03 15:20:38;;;;;;;6.75;1.70;;;22.40;61.20;;;;;;5035985;28;20045;-60
2023/07/03 15:23:04;;;;;;;8.18;1.55;;;22.40;60.50;;;;;;5037916;28;20119;-61
2023/07/03 15:25:30;;;;;;;4.75;1.55;;;22.40;60.50;;;;;;5046726;28;20106;-61
2023/07/03 15:27:55;;;;;;;14.10;3.90;;;22.40;60.40;;;;;;5050664;28;20052;-61
2023/07/03 15:30:21;;;;;;;13.20;4.57;;;22.40;61.00;;;;;;5051559;28;20044;-61
2023/07/03 15:32:51;;;;;;;15.35;3.38;;;22.40;61.50;;;;;;5050798;28;20480;-61
2023/07/03 15:35:16;;;;;;;10.07;2.65;;;22.40;61.50;;;;;;5051483;28;20150;-61
2023/07/03 15:37:42;;;;;;;9.07;2.33;;;22.50;61.30;;;;;;5051859;28;20040;-61
2023/07/03 15:40:08;;;;;;;8.57;3.00;;;22.50;61.10;;;;;;5051620;28;20140;-61
2023/07/03 15:42:37;;;;;;;11.30;3.55;;;22.50;60.90;;;;;;5038634;28;20136;-61
2023/07/03 15:45:04;;;;;;;12.50;3.15;;;22.50;61.00;;;;;;5031946;28;20053;-60
2023/07/03 15:47:29;;;;;;;11.05;3.10;;;22.50;61.20;;;;;;5031139;28;20057;-60
2023/07/03 15:49:55;;;;;;;10.65;3.15;;;22.50;61.30;;;;;;5038122;28;20033;-61
2023/07/03 15:52:21;;;;;;;14.45;2.40;;;22.50;61.40;;;;;;5036221;28;20053;-61
2023/07/03 15:54:50;;;;;;;11.05;3.03;;;22.50;61.50;;;;;;5042352;28;20063;-61
2023/07/03 15:57:16;;;;;;;10.70;2.88;;;22.50;61.50;;;;;;5037079;28;20058;-61
2023/07/03 15:59:42;;;;;;;9.75;3.05;;;22.50;61.60;;;;;;5037275;28;20029;-61
2023/07/03 16:02:07;;;;;;;10.57;3.08;;;22.50;61.70;;;;;;5045104;28;20041;-60
2023/07/03 16:04:34;;;;;;;12.75;2.42;;;22.50;61.80;;;;;;5041987;28;20399;-60
2023/07/03 16:06:59;;;;;;;10.77;2.53;;;22.50;61.80;;;;;;5049539;28;20040;-60
2023/07/03 16:09:25;;;;;;;7.80;2.58;;;22.50;61.90;;;;;;5050377;28;20094;-60
2023/07/03 16:11:52;;;;;;;9.02;2.58;;;22.60;62.00;;;;;;5050092;28;20098;-60
2023/07/03 16:14:18;;;;;;;11.15;2.90;;;22.60;62.00;;;;;;5051501;28;20459;-60
2023/07/03 16:16:43;;;;;;;7.43;2.38;;;22.60;62.00;;;;;;5049848;28;20083;-60
2023/07/03 16:19:09;;;;;;;6.18;1.85;;;22.70;62.00;;;;;;5050983;28;20047;-60
2023/07/03 16:21:36;;;;;;;9.13;2.17;;;22.70;62.00;;;;;;5050950;28;20029;-60
2023/07/03 16:24:02;;;;;;;8.68;2.25;;;22.80;62.00;;;;;;5043100;28;20051;-61
2023/07/03 16:26:28;;;;;;;7.05;1.98;;;22.90;62.00;;;;;;5052499;28;20084;-61
2023/07/03 16:28:54;;;;;;;7.78;2.22;;;22.90;61.90;;;;;;5045047;28;20076;-60
2023/07/03 16:31:25;;;;;;;8.23;2.30;;;22.90;61.60;;;;;;5052782;28;20045;-60
2023/07/03 16:33:51;;;;;;;10.40;2.50;;;23.00;61.50;;;;;;5052440;28;20066;-60
2023/07/03 16:36:21;;;;;;;7.20;2.17;;;23.10;61.30;;;;;;5053337;28;20099;-60
2023/07/03 16:38:52;;;;;;;8.40;2.35;;;23.10;61.20;;;;;;5052354;28;20132;-60
2023/07/03 16:41:18;;;;;;;8.52;2.20;;;23.10;60.90;;;;;;5054841;28;20065;-60
2023/07/03 16:43:45;;;;;;;9.40;2.30;;;23.20;60.90;;;;;;5051109;28;20075;-60
2023/07/03 16:46:12;;;;;;;10.30;2.58;;;23.30;61.00;;;;;;5054568;28;20045;-60
2023/07/03 16:48:38;;;;;;;7.57;2.10;;;23.20;60.80;;;;;;5042669;28;20049;-60
2023/07/03 16:51:04;;;;;;;8.10;2.20;;;23.30;60.80;;;;;;5053169;28;20040;-60
2023/07/03 16:53:31;;;;;;;6.80;2.25;;;23.20;60.80;;;;;;5051678;28;20089;-61
2023/07/03 16:56:00;;;;;;;6.67;2.30;;;23.20;60.80;;;;;;5053945;28;20488;-60
2023/07/03 16:58:26;;;;;;;6.90;2.17;;;23.10;60.90;;;;;;5050195;28;20307;-60
2023/07/03 17:00:52;;;;;;;8.00;2.00;;;23.10;60.90;;;;;;5044383;28;20412;-60
2023/07/03 17:03:17;;;;;;;7.63;2.10;;;23.10;61.00;;;;;;5050410;28;20087;-60
2023/07/03 17:05:43;;;;;;;7.10;2.10;;;23.10;61.10;;;;;;5053504;28;20045;-60
2023/07/03 17:08:08;;;;;;;8.25;1.85;;;23.10;61.10;;;;;;5050896;28;20451;-60
2023/07/03 17:10:34;;;;;;;4.78;1.80;;;23.10;61.10;;;;;;5053911;28;20041;-60
2023/07/03 17:13:02;;;;;;;5.13;1.70;;;23.20;61.00;;;;;;5024876;28;20045;-61
2023/07/03 17:15:28;;;;;;;6.25;1.58;;;23.20;60.90;;;;;;5051785;28;20126;-60
2023/07/03 17:17:53;;;;;;;4.82;1.67;;;23.30;60.80;;;;;;5052139;28;20111;-60
2023/07/03 17:20:19;;;;;;;5.00;1.50;;;23.30;60.60;;;;;;5052008;28;20044;-61
2023/07/03 17:22:45;;;;;;;7.72;1.98;;;23.30;60.50;;;;;;5052334;28;20048;-60
2023/07/03 17:25:11;;;;;;;6.78;1.73;;;23.30;60.60;;;;;;5043669;28;20408;-60
2023/07/03 17:27:36;;;;;;;5.40;1.60;;;23.30;60.60;;;;;;5038041;28;20041;-61
2023/07/03 17:30:02;;;;;;;6.25;2.03;;;23.20;60.60;;;;;;5046998;28;20044;-60
2023/07/03 17:32:27;;;;;;;7.25;1.90;;;23.20;60.70;;;;;;5045216;28;20049;-60
2023/07/03 17:34:53;;;;;;;7.18;2.25;;;23.20;60.80;;;;;;5042202;28;20057;-60
2023/07/03 17:37:19;;;;;;;9.05;1.90;;;23.20;60.90;;;;;;5048529;28;20396;-61
2023/07/03 17:39:45;;;;;;;6.75;1.77;;;23.10;60.80;;;;;;5039489;28;20060;-61
2023/07/03 17:42:11;;;;;;;7.93;1.70;;;23.10;60.90;;;;;;5052967;28;20452;-61
2023/07/03 17:44:37;;;;;;;7.68;1.75;;;23.10;60.90;;;;;;5053527;28;20488;-61
2023/07/03 17:47:02;;;;;;;5.18;1.60;;;23.10;60.90;;;;;;5051370;28;20056;-61
2023/07/03 17:49:28;;;;;;;7.82;1.75;;;23.10;61.00;;;;;;5053544;28;20163;-58
2023/07/03 17:51:54;;;;;;;8.05;1.73;;;23.10;61.10;;;;;;5053562;28;20365;-59
2023/07/03 17:54:19;;;;;;;4.78;1.50;;;23.10;61.10;;;;;;5052877;28;20041;-59
2023/07/03 17:56:45;;;;;;;6.72;1.77;;;23.00;61.10;;;;;;5053886;28;20091;-59
2023/07/03 17:59:10;;;;;;;7.93;1.80;;;23.00;60.60;;;;;;5052981;28;20037;-58
2023/07/03 18:01:36;;;;;;;7.25;1.88;;;23.00;61.20;;;;;;5052865;28;20048;-59
2023/07/03 18:04:02;;;;;;;6.65;1.80;;;23.00;61.30;;;;;;5053078;28;20120;-58
2023/07/03 18:06:28;;;;;;;5.40;1.55;;;22.90;61.30;;;;;;5052703;28;20408;-60
2023/07/03 18:08:54;;;;;;;6.78;1.75;;;23.00;61.40;;;;;;5037870;28;20045;-60
2023/07/03 18:11:21;;;;;;;6.65;1.50;;;22.90;61.40;;;;;;5032123;28;20052;-61
2023/07/03 18:13:46;;;;;;;5.00;1.42;;;22.90;61.50;;;;;;5033186;28;20045;-61
2023/07/03 18:16:12;;;;;;;4.15;1.63;;;22.90;61.50;;;;;;5033066;28;20040;-60
2023/07/03 18:18:38;;;;;;;8.23;2.05;;;22.80;61.50;;;;;;5033374;28;20041;-60
2023/07/03 18:21:03;;;;;;;5.13;1.42;;;22.80;61.50;;;;;;5032786;28;20142;-60
2023/07/03 18:23:30;;;;;;;5.13;1.45;;;22.80;61.60;;;;;;5043779;28;20407;-60
2023/07/03 18:25:56;;;;;;;4.63;1.70;;;22.80;61.70;;;;;;5052960;28;20041;-59
2023/07/03 18:28:21;;;;;;;5.47;1.50;;;22.80;61.80;;;;;;5041992;28;20109;-61
2023/07/03 18:31:02;;;;;;;5.18;1.55;;;22.70;61.80;;;;;;5032394;28;20049;-60
2023/07/03 18:33:29;;;;;;;7.00;1.42;;;22.70;61.80;;;;;;5041930;28;20041;-61
2023/07/03 18:35:55;;;;;;;6.20;1.67;;;22.70;61.70;;;;;;5052417;28;20052;-61
2023/07/03 18:38:22;;;;;;;7.20;1.60;;;22.70;61.80;;;;;;5050282;28;20128;-61
2023/07/03 18:40:48;;;;;;;4.35;1.33;;;22.70;61.90;;;;;;5052578;28;20103;-62
2023/07/03 18:43:14;;;;;;;6.15;1.70;;;22.60;62.00;;;;;;5043673;28;20041;-60
2023/07/03 18:45:40;;;;;;;6.90;1.70;;;22.60;62.00;;;;;;5032243;28;20182;-61
2023/07/03 18:48:05;;;;;;;5.55;1.58;;;22.60;62.10;;;;;;5038250;28;20044;-61
2023/07/03 18:50:31;;;;;;;5.60;1.48;;;22.60;62.10;;;;;;5034228;28;20036;-61
2023/07/03 18:52:56;;;;;;;5.72;1.48;;;22.60;62.20;;;;;;5046022;28;20485;-61
2023/07/03 18:55:22;;;;;;;8.38;1.77;;;22.60;62.20;;;;;;5033062;28;20527;-61
2023/07/03 18:57:48;;;;;;;4.95;1.63;;;22.60;62.20;;;;;;5030353;28;20034;-61
2023/07/03 19:00:14;;;;;;;6.60;1.90;;;22.60;62.30;;;;;;5032532;28;20124;-61
2023/07/03 19:02:40;;;;;;;6.18;1.50;;;22.60;62.30;;;;;;5033672;28;20110;-59
2023/07/03 19:05:06;;;;;;;5.22;1.45;;;22.60;62.30;;;;;;5051162;28;20040;-60
2023/07/03 19:07:32;;;;;;;4.70;1.33;;;22.60;62.40;;;;;;5051805;28;20583;-59
2023/07/03 19:09:58;;;;;;;5.75;2.00;;;22.60;62.50;;;;;;5031977;28;20056;-60
2023/07/03 19:12:23;;;;;;;5.95;1.60;;;22.60;62.50;;;;;;5032051;28;20045;-60
2023/07/03 19:14:50;;;;;;;3.22;1.10;;;22.60;62.60;;;;;;5051456;28;20036;-61
2023/07/03 19:17:16;;;;;;;7.90;1.42;;;22.60;62.60;;;;;;5052366;28;20041;-62
2023/07/03 19:19:41;;;;;;;4.55;1.33;;;22.50;62.60;;;;;;5051428;28;20090;-59
2023/07/03 19:22:07;;;;;;;5.10;1.48;;;22.50;62.60;;;;;;5044949;28;20602;-60
2023/07/03 19:24:32;;;;;;;6.30;2.08;;;22.50;62.70;;;;;;5047942;28;20040;-60
2023/07/03 19:26:59;;;;;;;7.32;1.52;;;22.50;62.70;;;;;;5050858;28;20045;-60
2023/07/03 19:29:24;;;;;;;3.58;1.25;;;22.50;62.70;;;;;;5039446;28;20056;-60
2023/07/03 19:31:50;;;;;;;2.17;1.10;;;22.50;62.80;;;;;;5051000;28;20049;-60
2023/07/03 19:34:16;;;;;;;4.30;1.13;;;22.50;62.80;;;;;;5047190;28;20045;-60
2023/07/03 19:36:41;;;;;;;6.18;1.35;;;22.50;62.90;;;;;;5049947;28;20095;-61
2023/07/03 19:39:07;;;;;;;2.53;1.35;;;22.50;62.90;;;;;;5047997;28;20131;-60
2023/07/03 19:41:32;;;;;;;5.05;1.15;;;22.50;62.90;;;;;;5050941;28;20083;-60
2023/07/03 19:43:58;;;;;;;5.78;1.30;;;22.50;63.00;;;;;;5048582;28;20115;-60
2023/07/03 19:46:24;;;;;;;6.40;1.25;;;22.50;63.00;;;;;;5051392;28;20094;-60
2023/07/03 19:48:50;;;;;;;5.40;1.38;;;22.40;63.00;;;;;;5037726;28;20033;-60
2023/07/03 19:51:16;;;;;;;5.38;1.17;;;22.50;63.10;;;;;;5051099;28;20052;-60
2023/07/03 19:53:41;;;;;;;5.32;1.55;;;22.40;63.10;;;;;;5048982;28;20072;-60
2023/07/03 19:56:17;;;;;;;4.15;1.25;;;22.50;63.20;;;;;;5051053;28;20468;-60
2023/07/03 19:58:43;;;;;;;5.78;1.02;;;22.50;63.30;;;;;;5048200;28;20063;-60
2023/07/03 20:01:10;;;;;;;7.32;1.40;;;22.50;63.20;;;;;;5046432;28;20547;-60
2023/07/03 20:03:35;;;;;;;6.65;1.45;;;22.40;63.00;;;;;;5047442;28;20037;-60
2023/07/03 20:06:02;;;;;;;5.75;1.30;;;22.40;63.00;;;;;;5045894;28;20048;-60
2023/07/03 20:08:28;;;;;;;3.35;1.23;;;22.40;63.00;;;;;;5039399;28;20476;-60
2023/07/03 20:10:58;;;;;;;5.32;1.05;;;22.40;63.10;;;;;;5048698;28;20049;-60
2023/07/03 20:13:23;;;;;;;3.30;1.27;;;22.40;63.10;;;;;;5040466;28;20531;-59
2023/07/03 20:15:52;;;;;;;4.30;1.10;;;22.40;63.10;;;;;;5046960;28;20440;-60
2023/07/03 20:18:18;;;;;;;6.15;1.30;;;22.40;63.10;;;;;;5042736;28;20041;-59
2023/07/03 20:20:43;;;;;;;5.20;1.10;;;22.40;63.10;;;;;;5041413;28;20041;-59
2023/07/03 20:23:09;;;;;;;5.38;1.13;;;22.40;63.20;;;;;;5043637;28;20049;-60
2023/07/03 20:25:34;;;;;;;5.43;1.48;;;22.40;63.20;;;;;;5045002;28;20136;-59
2023/07/03 20:28:00;;;;;;;5.40;1.02;;;22.40;63.20;;;;;;5041119;28;20080;-60
2023/07/03 20:30:27;;;;;;;5.70;1.30;;;22.40;63.20;;;;;;5042699;28;20477;-60
2023/07/03 20:32:53;;;;;;;4.22;1.08;;;22.40;63.30;;;;;;5039642;28;20144;-60
2023/07/03 20:35:19;;;;;;;3.00;0.98;;;22.40;63.30;;;;;;5041816;28;20488;-60
2023/07/03 20:37:45;;;;;;;3.28;1.38;;;22.40;63.30;;;;;;5042027;28;20037;-60
2023/07/03 20:40:10;;;;;;;5.57;1.30;;;22.40;63.30;;;;;;5039735;28;20067;-60
2023/07/03 20:42:36;;;;;;;4.07;1.20;;;22.40;63.30;;;;;;5042587;28;20041;-59
2023/07/03 20:45:02;;;;;;;8.15;1.20;;;22.40;63.30;;;;;;5041999;28;20048;-59
2023/07/03 20:47:30;;;;;;;4.32;1.27;;;22.40;63.40;;;;;;5040434;28;20041;-58
2023/07/03 20:49:57;;;;;;;;;;;22.40;63.40;;;;;;5040992;28;20073;-60
2023/07/03 20:52:25;;;;;;;5.60;1.65;;;22.40;63.20;;;;;;5042373;28;19925;-60
2023/07/03 20:55:04;;;;;;;5.05;1.63;;;22.30;63.30;;;;;;5041302;28;20045;-60
2023/07/03 20:57:33;;;;;;;6.07;1.55;;;22.40;63.40;;;;;;5046059;28;20110;-60
2023/07/03 20:59:59;;;;;;;5.88;1.40;;;22.30;63.40;;;;;;5044212;28;20041;-60
2023/07/03 21:02:25;;;;;;;8.02;1.25;;;22.40;63.50;;;;;;5039718;28;20126;-60
2023/07/03 21:04:51;;;;;;;5.97;1.48;;;22.40;63.40;;;;;;5042691;28;20040;-60
2023/07/03 21:07:17;;;;;;;3.88;1.08;;;22.40;63.40;;;;;;5043183;28;20044;-59
2023/07/03 21:09:42;;;;;;;5.40;1.40;;;22.40;63.50;;;;;;5043450;28;20079;-60
2023/07/03 21:12:08;;;;;;;6.40;1.20;;;22.40;63.60;;;;;;5038881;28;20042;-59
2023/07/03 21:14:35;;;;;;;4.07;1.35;;;22.30;63.50;;;;;;5039591;28;20530;-59
2023/07/03 21:17:00;;;;;;;4.22;1.10;;;22.30;63.60;;;;;;5042414;28;20048;-59
2023/07/03 21:19:26;;;;;;;5.53;1.30;;;22.40;63.60;;;;;;5040032;28;20569;-65